Spring River (Missouri), La Russell (07185700)

StateMissouriCurrentPotential (295 cfs)
RiverSpring RiverFlood - The river is flooding. Obstacles can be treacherous or deadly. The river should be avoided at this stage for casual trips and definitely for the inexperienced. Trips should be attempted only with protective gear and equipment.Flood(none)
Updated2019-11-21 19:30 (37 minutes ago)High - The river is high and potentially dangerous, especially for the young and / or inexperienced. Normal stream obstacles are sometimes difficult to navigate. Extended distances can be attempted, but canoe travel may not be advisable.High(none)
Discharge295 cfs (median: 85 cfs)Good - Conditions are ideal for a canoe or kayak. Boats typically will drag on fewer than one-quarter of riffles, if at all, and portages are unnecessary or rare. Normal float lengths can be attempted without a problem.Good(none)
Height2.17 feetLow - River is low but can still be floated. Some riffles are okay but most come with significant dragging and might need a portage. Float lengths should be reduced to accommodate low flow, dragging, and portages.Low(none)
TrendSteady (falling over 24 hours)Poor - River is too low to float comfortably. Most or all riffles will drag or must be portaged and some obstacles (such as slick shelf rock) cause undue problems. Avoid the river at this stage for casual paddling trips.Poor(none)
USGSExternal icon USGS Site for La Russell (07185700)LocationExternal icon Google Maps

Trending Data

Plot Image
ObservationHeightDischargeMaximum
Discharge
Minimum
Discharge
Mean
Discharge
P05P10P20P25P50
(Median)
P75P80P90P95
2019-11-21 19:30 2.17 295 1140 (1974) 37 (1981) 210 39 49 57 62 85 253 327 659 885
2019-11-21 18:30 2.17 295 1140 (1974) 37 (1981) 210 39 49 57 62 85 253 327 659 885
2019-11-21 17:30 2.15 289 1140 (1974) 37 (1981) 210 39 49 57 62 85 253 327 659 885
2019-11-21 16:30 2.15 289 1140 (1974) 37 (1981) 210 39 49 57 62 85 253 327 659 885
2019-11-21 15:30 2.16 292 1140 (1974) 37 (1981) 210 39 49 57 62 85 253 327 659 885
2019-11-21 14:30 2.16 292 1140 (1974) 37 (1981) 210 39 49 57 62 85 253 327 659 885
2019-11-21 13:30 2.17 295 1140 (1974) 37 (1981) 210 39 49 57 62 85 253 327 659 885
2019-11-21 12:30 2.17 295 1140 (1974) 37 (1981) 210 39 49 57 62 85 253 327 659 885
2019-11-21 11:30 2.17 295 1140 (1974) 37 (1981) 210 39 49 57 62 85 253 327 659 885
2019-11-21 10:30 2.16 292 1140 (1974) 37 (1981) 210 39 49 57 62 85 253 327 659 885
2019-11-21 09:30 2.16 292 1140 (1974) 37 (1981) 210 39 49 57 62 85 253 327 659 885
2019-11-21 08:30 2.17 295 1140 (1974) 37 (1981) 210 39 49 57 62 85 253 327 659 885
2019-11-21 07:30 2.16 292 1140 (1974) 37 (1981) 210 39 49 57 62 85 253 327 659 885
2019-11-21 06:30 2.17 295 1140 (1974) 37 (1981) 210 39 49 57 62 85 253 327 659 885
2019-11-21 05:30 2.17 295 1140 (1974) 37 (1981) 210 39 49 57 62 85 253 327 659 885
2019-11-21 04:30 2.17 295 1140 (1974) 37 (1981) 210 39 49 57 62 85 253 327 659 885
2019-11-21 03:30 2.17 295 1140 (1974) 37 (1981) 210 39 49 57 62 85 253 327 659 885
2019-11-21 02:30 2.18 298 1140 (1974) 37 (1981) 210 39 49 57 62 85 253 327 659 885
2019-11-21 01:30 2.17 295 1140 (1974) 37 (1981) 210 39 49 57 62 85 253 327 659 885
2019-11-21 00:30 2.18 298 1140 (1974) 37 (1981) 210 39 49 57 62 85 253 327 659 885
2019-11-20 23:30 2.18 298 932 (1974) 38 (1981) 194 43 49 60 66 87 234 283 590 816
2019-11-20 22:30 2.17 295 932 (1974) 38 (1981) 194 43 49 60 66 87 234 283 590 816
2019-11-20 21:30 2.17 295 932 (1974) 38 (1981) 194 43 49 60 66 87 234 283 590 816
2019-11-20 20:30 2.18 298 932 (1974) 38 (1981) 194 43 49 60 66 87 234 283 590 816
2019-11-20 19:30 2.18 298 932 (1974) 38 (1981) 194 43 49 60 66 87 234 283 590 816
2019-11-20 18:30 2.18 298 932 (1974) 38 (1981) 194 43 49 60 66 87 234 283 590 816
2019-11-20 17:30 2.18 298 932 (1974) 38 (1981) 194 43 49 60 66 87 234 283 590 816
2019-11-20 16:30 2.19 301 932 (1974) 38 (1981) 194 43 49 60 66 87 234 283 590 816
2019-11-20 15:30 2.19 301 932 (1974) 38 (1981) 194 43 49 60 66 87 234 283 590 816
2019-11-20 14:30 2.20 304 932 (1974) 38 (1981) 194 43 49 60 66 87 234 283 590 816
2019-11-20 13:30 2.19 301 932 (1974) 38 (1981) 194 43 49 60 66 87 234 283 590 816
2019-11-20 12:30 2.20 304 932 (1974) 38 (1981) 194 43 49 60 66 87 234 283 590 816
2019-11-20 11:30 2.20 304 932 (1974) 38 (1981) 194 43 49 60 66 87 234 283 590 816
2019-11-20 10:30 2.19 301 932 (1974) 38 (1981) 194 43 49 60 66 87 234 283 590 816
2019-11-20 09:30 2.20 304 932 (1974) 38 (1981) 194 43 49 60 66 87 234 283 590 816
2019-11-20 08:30 2.20 304 932 (1974) 38 (1981) 194 43 49 60 66 87 234 283 590 816
2019-11-20 07:30 2.20 304 932 (1974) 38 (1981) 194 43 49 60 66 87 234 283 590 816
2019-11-20 06:30 2.20 304 932 (1974) 38 (1981) 194 43 49 60 66 87 234 283 590 816
2019-11-20 05:30 2.21 307 932 (1974) 38 (1981) 194 43 49 60 66 87 234 283 590 816
2019-11-20 04:30 2.21 307 932 (1974) 38 (1981) 194 43 49 60 66 87 234 283 590 816
2019-11-20 03:30 2.21 307 932 (1974) 38 (1981) 194 43 49 60 66 87 234 283 590 816
2019-11-20 02:30 2.21 307 932 (1974) 38 (1981) 194 43 49 60 66 87 234 283 590 816
2019-11-20 01:30 2.21 307 932 (1974) 38 (1981) 194 43 49 60 66 87 234 283 590 816
2019-11-20 00:30 2.22 310 932 (1974) 38 (1981) 194 43 49 60 66 87 234 283 590 816
2019-11-19 23:30 2.22 310 852 (1973) 37 (1964) 179 39 49 61 63 89 196 266 560 760
2019-11-19 22:30 2.22 310 852 (1973) 37 (1964) 179 39 49 61 63 89 196 266 560 760
2019-11-19 21:30 2.22 310 852 (1973) 37 (1964) 179 39 49 61 63 89 196 266 560 760
2019-11-19 20:30 2.23 313 852 (1973) 37 (1964) 179 39 49 61 63 89 196 266 560 760
2019-11-19 19:30 2.23 313 852 (1973) 37 (1964) 179 39 49 61 63 89 196 266 560 760
2019-11-19 18:30 2.23 313 852 (1973) 37 (1964) 179 39 49 61 63 89 196 266 560 760
2019-11-19 17:30 2.24 316 852 (1973) 37 (1964) 179 39 49 61 63 89 196 266 560 760
2019-11-19 16:30 2.25 319 852 (1973) 37 (1964) 179 39 49 61 63 89 196 266 560 760
2019-11-19 15:30 2.24 316 852 (1973) 37 (1964) 179 39 49 61 63 89 196 266 560 760
2019-11-19 14:30 2.24 316 852 (1973) 37 (1964) 179 39 49 61 63 89 196 266 560 760
2019-11-19 13:30 2.25 319 852 (1973) 37 (1964) 179 39 49 61 63 89 196 266 560 760
2019-11-19 12:30 2.24 316 852 (1973) 37 (1964) 179 39 49 61 63 89 196 266 560 760
2019-11-19 11:30 2.25 319 852 (1973) 37 (1964) 179 39 49 61 63 89 196 266 560 760
2019-11-19 10:30 2.25 319 852 (1973) 37 (1964) 179 39 49 61 63 89 196 266 560 760
2019-11-19 09:30 2.26 322 852 (1973) 37 (1964) 179 39 49 61 63 89 196 266 560 760
2019-11-19 08:30 2.25 319 852 (1973) 37 (1964) 179 39 49 61 63 89 196 266 560 760
2019-11-19 07:30 2.24 316 852 (1973) 37 (1964) 179 39 49 61 63 89 196 266 560 760
2019-11-19 06:30 2.25 319 852 (1973) 37 (1964) 179 39 49 61 63 89 196 266 560 760
2019-11-19 05:30 2.25 319 852 (1973) 37 (1964) 179 39 49 61 63 89 196 266 560 760
2019-11-19 04:30 2.26 322 852 (1973) 37 (1964) 179 39 49 61 63 89 196 266 560 760
2019-11-19 03:30 2.26 322 852 (1973) 37 (1964) 179 39 49 61 63 89 196 266 560 760
2019-11-19 02:30 2.26 322 852 (1973) 37 (1964) 179 39 49 61 63 89 196 266 560 760
2019-11-19 01:30 2.26 322 852 (1973) 37 (1964) 179 39 49 61 63 89 196 266 560 760
2019-11-19 00:30 2.26 322 852 (1973) 37 (1964) 179 39 49 61 63 89 196 266 560 760
2019-11-18 23:30 2.26 322 2590 (2016) 33 (1964) 237 38 50 61 65 89 205 272 618 1120
2019-11-18 22:30 2.27 325 2590 (2016) 33 (1964) 237 38 50 61 65 89 205 272 618 1120
2019-11-18 21:30 2.26 322 2590 (2016) 33 (1964) 237 38 50 61 65 89 205 272 618 1120
2019-11-18 20:30 2.26 322 2590 (2016) 33 (1964) 237 38 50 61 65 89 205 272 618 1120
2019-11-18 19:30 2.27 325 2590 (2016) 33 (1964) 237 38 50 61 65 89 205 272 618 1120
2019-11-18 18:30 2.27 325 2590 (2016) 33 (1964) 237 38 50 61 65 89 205 272 618 1120
2019-11-18 17:30 2.28 329 2590 (2016) 33 (1964) 237 38 50 61 65 89 205 272 618 1120
2019-11-18 16:30 2.27 325 2590 (2016) 33 (1964) 237 38 50 61 65 89 205 272 618 1120
2019-11-18 15:30 2.28 329 2590 (2016) 33 (1964) 237 38 50 61 65 89 205 272 618 1120
2019-11-18 14:30 2.28 329 2590 (2016) 33 (1964) 237 38 50 61 65 89 205 272 618 1120
2019-11-18 13:30 2.29 332 2590 (2016) 33 (1964) 237 38 50 61 65 89 205 272 618 1120
2019-11-18 12:30 2.28 329 2590 (2016) 33 (1964) 237 38 50 61 65 89 205 272 618 1120
2019-11-18 11:30 2.28 329 2590 (2016) 33 (1964) 237 38 50 61 65 89 205 272 618 1120
2019-11-18 10:30 2.28 329 2590 (2016) 33 (1964) 237 38 50 61 65 89 205 272 618 1120
2019-11-18 09:30 2.28 329 2590 (2016) 33 (1964) 237 38 50 61 65 89 205 272 618 1120
2019-11-18 08:30 2.28 329 2590 (2016) 33 (1964) 237 38 50 61 65 89 205 272 618 1120
2019-11-18 07:30 2.29 332 2590 (2016) 33 (1964) 237 38 50 61 65 89 205 272 618 1120
2019-11-18 06:30 2.28 329 2590 (2016) 33 (1964) 237 38 50 61 65 89 205 272 618 1120
2019-11-18 05:30 2.28 329 2590 (2016) 33 (1964) 237 38 50 61 65 89 205 272 618 1120
2019-11-18 04:30 2.29 332 2590 (2016) 33 (1964) 237 38 50 61 65 89 205 272 618 1120
2019-11-18 03:30 2.28 329 2590 (2016) 33 (1964) 237 38 50 61 65 89 205 272 618 1120
2019-11-18 02:30 2.30 335 2590 (2016) 33 (1964) 237 38 50 61 65 89 205 272 618 1120
2019-11-18 01:30 2.29 332 2590 (2016) 33 (1964) 237 38 50 61 65 89 205 272 618 1120
2019-11-18 00:30 2.29 332 2590 (2016) 33 (1964) 237 38 50 61 65 89 205 272 618 1120
2019-11-17 23:30 2.30 335 2260 (2016) 33 (1964) 240 38 47 62 63 90 215 281 664 1270
2019-11-17 22:30 2.30 335 2260 (2016) 33 (1964) 240 38 47 62 63 90 215 281 664 1270
2019-11-17 21:30 2.30 335 2260 (2016) 33 (1964) 240 38 47 62 63 90 215 281 664 1270
2019-11-17 20:30 2.30 335 2260 (2016) 33 (1964) 240 38 47 62 63 90 215 281 664 1270
2019-11-17 19:30 2.30 335 2260 (2016) 33 (1964) 240 38 47 62 63 90 215 281 664 1270
2019-11-17 18:30 2.31 338 2260 (2016) 33 (1964) 240 38 47 62 63 90 215 281 664 1270
2019-11-17 17:30 2.31 338 2260 (2016) 33 (1964) 240 38 47 62 63 90 215 281 664 1270
2019-11-17 16:30 2.31 338 2260 (2016) 33 (1964) 240 38 47 62 63 90 215 281 664 1270
2019-11-17 15:30 2.32 341 2260 (2016) 33 (1964) 240 38 47 62 63 90 215 281 664 1270
2019-11-17 14:30 2.32 341 2260 (2016) 33 (1964) 240 38 47 62 63 90 215 281 664 1270
2019-11-17 13:30 2.32 341 2260 (2016) 33 (1964) 240 38 47 62 63 90 215 281 664 1270
2019-11-17 12:30 2.32 341 2260 (2016) 33 (1964) 240 38 47 62 63 90 215 281 664 1270
2019-11-17 11:30 2.32 341 2260 (2016) 33 (1964) 240 38 47 62 63 90 215 281 664 1270
2019-11-17 10:30 2.32 341 2260 (2016) 33 (1964) 240 38 47 62 63 90 215 281 664 1270
2019-11-17 09:30 2.31 338 2260 (2016) 33 (1964) 240 38 47 62 63 90 215 281 664 1270
2019-11-17 08:30 2.32 341 2260 (2016) 33 (1964) 240 38 47 62 63 90 215 281 664 1270
2019-11-17 07:30 2.32 341 2260 (2016) 33 (1964) 240 38 47 62 63 90 215 281 664 1270
2019-11-17 06:30 2.33 344 2260 (2016) 33 (1964) 240 38 47 62 63 90 215 281 664 1270
2019-11-17 05:30 2.32 341 2260 (2016) 33 (1964) 240 38 47 62 63 90 215 281 664 1270
2019-11-17 04:30 2.32 341 2260 (2016) 33 (1964) 240 38 47 62 63 90 215 281 664 1270
2019-11-17 03:30 2.32 341 2260 (2016) 33 (1964) 240 38 47 62 63 90 215 281 664 1270
2019-11-17 02:30 2.33 344 2260 (2016) 33 (1964) 240 38 47 62 63 90 215 281 664 1270
2019-11-17 01:30 2.34 348 2260 (2016) 33 (1964) 240 38 47 62 63 90 215 281 664 1270
2019-11-17 00:30 2.33 344 2260 (2016) 33 (1964) 240 38 47 62 63 90 215 281 664 1270
2019-11-16 23:30 2.33 344 2320 (1969) 30 (1964) 223 38 47 63 67 87 207 270 479 1250
2019-11-16 22:30 2.33 344 2320 (1969) 30 (1964) 223 38 47 63 67 87 207 270 479 1250
2019-11-16 21:30 2.33 344 2320 (1969) 30 (1964) 223 38 47 63 67 87 207 270 479 1250
2019-11-16 20:30 2.34 348 2320 (1969) 30 (1964) 223 38 47 63 67 87 207 270 479 1250
2019-11-16 19:30 2.34 348 2320 (1969) 30 (1964) 223 38 47 63 67 87 207 270 479 1250
2019-11-16 18:30 2.33 344 2320 (1969) 30 (1964) 223 38 47 63 67 87 207 270 479 1250
2019-11-16 17:30 2.34 348 2320 (1969) 30 (1964) 223 38 47 63 67 87 207 270 479 1250
2019-11-16 16:30 2.35 351 2320 (1969) 30 (1964) 223 38 47 63 67 87 207 270 479 1250
2019-11-16 15:30 2.36 354 2320 (1969) 30 (1964) 223 38 47 63 67 87 207 270 479 1250
2019-11-16 14:30 2.35 351 2320 (1969) 30 (1964) 223 38 47 63 67 87 207 270 479 1250
2019-11-16 13:30 2.36 354 2320 (1969) 30 (1964) 223 38 47 63 67 87 207 270 479 1250
2019-11-16 12:30 2.36 354 2320 (1969) 30 (1964) 223 38 47 63 67 87 207 270 479 1250
2019-11-16 11:30 2.36 354 2320 (1969) 30 (1964) 223 38 47 63 67 87 207 270 479 1250
2019-11-16 10:30 2.36 354 2320 (1969) 30 (1964) 223 38 47 63 67 87 207 270 479 1250
2019-11-16 09:30 2.36 354 2320 (1969) 30 (1964) 223 38 47 63 67 87 207 270 479 1250
2019-11-16 08:30 2.35 351 2320 (1969) 30 (1964) 223 38 47 63 67 87 207 270 479 1250
2019-11-16 07:30 2.35 351 2320 (1969) 30 (1964) 223 38 47 63 67 87 207 270 479 1250
2019-11-16 06:30 2.36 354 2320 (1969) 30 (1964) 223 38 47 63 67 87 207 270 479 1250
2019-11-16 05:30 2.36 354 2320 (1969) 30 (1964) 223 38 47 63 67 87 207 270 479 1250
2019-11-16 04:30 2.37 357 2320 (1969) 30 (1964) 223 38 47 63 67 87 207 270 479 1250
2019-11-16 03:30 2.37 357 2320 (1969) 30 (1964) 223 38 47 63 67 87 207 270 479 1250
2019-11-16 02:30 2.37 357 2320 (1969) 30 (1964) 223 38 47 63 67 87 207 270 479 1250
2019-11-16 01:30 2.37 357 2320 (1969) 30 (1964) 223 38 47 63 67 87 207 270 479 1250
2019-11-16 00:30 2.37 357 2320 (1969) 30 (1964) 223 38 47 63 67 87 207 270 479 1250
2019-11-15 23:30 2.38 361 1190 (1973) 31 (1964) 186 38 45 54 61 85 171 274 468 1070
2019-11-15 22:30 2.38 361 1190 (1973) 31 (1964) 186 38 45 54 61 85 171 274 468 1070
2019-11-15 21:30 2.38 361 1190 (1973) 31 (1964) 186 38 45 54 61 85 171 274 468 1070
2019-11-15 20:30 2.38 361 1190 (1973) 31 (1964) 186 38 45 54 61 85 171 274 468 1070
2019-11-15 19:30 2.39 364 1190 (1973) 31 (1964) 186 38 45 54 61 85 171 274 468 1070
2019-11-15 18:30 2.39 364 1190 (1973) 31 (1964) 186 38 45 54 61 85 171 274 468 1070
2019-11-15 17:30 2.39 364 1190 (1973) 31 (1964) 186 38 45 54 61 85 171 274 468 1070
2019-11-15 16:30 2.40 367 1190 (1973) 31 (1964) 186 38 45 54 61 85 171 274 468 1070
2019-11-15 15:30 2.41 371 1190 (1973) 31 (1964) 186 38 45 54 61 85 171 274 468 1070
2019-11-15 14:30 2.40 367 1190 (1973) 31 (1964) 186 38 45 54 61 85 171 274 468 1070
2019-11-15 13:30 2.40 367 1190 (1973) 31 (1964) 186 38 45 54 61 85 171 274 468 1070
2019-11-15 12:30 2.40 367 1190 (1973) 31 (1964) 186 38 45 54 61 85 171 274 468 1070
2019-11-15 11:30 2.40 367 1190 (1973) 31 (1964) 186 38 45 54 61 85 171 274 468 1070
2019-11-15 10:30 2.41 371 1190 (1973) 31 (1964) 186 38 45 54 61 85 171 274 468 1070
2019-11-15 09:30 2.40 367 1190 (1973) 31 (1964) 186 38 45 54 61 85 171 274 468 1070
2019-11-15 08:30 2.41 371 1190 (1973) 31 (1964) 186 38 45 54 61 85 171 274 468 1070
2019-11-15 07:30 2.40 367 1190 (1973) 31 (1964) 186 38 45 54 61 85 171 274 468 1070
2019-11-15 06:30 2.42 374 1190 (1973) 31 (1964) 186 38 45 54 61 85 171 274 468 1070
2019-11-15 05:30 2.42 374 1190 (1973) 31 (1964) 186 38 45 54 61 85 171 274 468 1070
2019-11-15 04:30 2.42 374 1190 (1973) 31 (1964) 186 38 45 54 61 85 171 274 468 1070
2019-11-15 03:30 2.42 374 1190 (1973) 31 (1964) 186 38 45 54 61 85 171 274 468 1070
2019-11-15 02:30 2.42 374 1190 (1973) 31 (1964) 186 38 45 54 61 85 171 274 468 1070
2019-11-15 01:30 2.42 374 1190 (1973) 31 (1964) 186 38 45 54 61 85 171 274 468 1070
2019-11-15 00:30 2.43 377 1190 (1973) 31 (1964) 186 38 45 54 61 85 171 274 468 1070
2019-11-14 23:30 2.42 374 1850 (1973) 31 (1964) 189 38 43 55 61 84 174 293 417 837
2019-11-14 22:30 2.43 377 1850 (1973) 31 (1964) 189 38 43 55 61 84 174 293 417 837
2019-11-14 21:30 2.44 381 1850 (1973) 31 (1964) 189 38 43 55 61 84 174 293 417 837
2019-11-14 20:30 2.44 381 1850 (1973) 31 (1964) 189 38 43 55 61 84 174 293 417 837
2019-11-14 19:30 2.45 384 1850 (1973) 31 (1964) 189 38 43 55 61 84 174 293 417 837
2019-11-14 18:30 2.45 384 1850 (1973) 31 (1964) 189 38 43 55 61 84 174 293 417 837
2019-11-14 17:30 2.46 387 1850 (1973) 31 (1964) 189 38 43 55 61 84 174 293 417 837
2019-11-14 16:30 2.45 384 1850 (1973) 31 (1964) 189 38 43 55 61 84 174 293 417 837
2019-11-14 15:30 2.46 387 1850 (1973) 31 (1964) 189 38 43 55 61 84 174 293 417 837
2019-11-14 14:30 2.46 387 1850 (1973) 31 (1964) 189 38 43 55 61 84 174 293 417 837
2019-11-14 13:30 2.46 387 1850 (1973) 31 (1964) 189 38 43 55 61 84 174 293 417 837
2019-11-14 12:30 2.46 387 1850 (1973) 31 (1964) 189 38 43 55 61 84 174 293 417 837
2019-11-14 11:30 2.46 387 1850 (1973) 31 (1964) 189 38 43 55 61 84 174 293 417 837
2019-11-14 10:30 2.47 391 1850 (1973) 31 (1964) 189 38 43 55 61 84 174 293 417 837
2019-11-14 09:30 2.47 391 1850 (1973) 31 (1964) 189 38 43 55 61 84 174 293 417 837
2019-11-14 08:30 2.47 391 1850 (1973) 31 (1964) 189 38 43 55 61 84 174 293 417 837
2019-11-14 07:30 2.46 387 1850 (1973) 31 (1964) 189 38 43 55 61 84 174 293 417 837
2019-11-14 06:30 2.46 387 1850 (1973) 31 (1964) 189 38 43 55 61 84 174 293 417 837
2019-11-14 05:30 2.48 394 1850 (1973) 31 (1964) 189 38 43 55 61 84 174 293 417 837
2019-11-14 04:30 2.48 394 1850 (1973) 31 (1964) 189 38 43 55 61 84 174 293 417 837
2019-11-14 03:30 2.47 391 1850 (1973) 31 (1964) 189 38 43 55 61 84 174 293 417 837
2019-11-14 02:30 2.47 391 1850 (1973) 31 (1964) 189 38 43 55 61 84 174 293 417 837
2019-11-14 01:30 2.48 394 1850 (1973) 31 (1964) 189 38 43 55 61 84 174 293 417 837
2019-11-14 00:30 2.48 394 1850 (1973) 31 (1964) 189 38 43 55 61 84 174 293 417 837

A total of 188 rows are displayed for years 1958 through 2018.

Trips for Spring River (Missouri), La Russell (07185700)

DateStartEndDistanceConditionDischargeHeightFishingDetails

A total of 0 rows are displayed.

Condition Descriptions

Fishing Conditions

Fish Species

Notes

Classic Trip List

The classic River Trips application is still available for use. It is updated with the new system using a data retrofit. It is no longer maintained. The original River Trips application is no longer updated (as of 1 Dec 2016) but can be checked for errors or for the condition of the data before it was converted to the new system.